Aviation Digital Data Service (ADDS)

Output produced by METARs form (0610 UTC 31 October 2014)
found at http://www.aviationweather.gov/adds/metars/
 
KJFK 310537Z 3106/0112 35007KT P6SM SCT050 
     FM311400 03007KT P6SM BKN040 
     FM311800 07008KT P6SM BKN035 
     TEMPO 3122/0102 -RA 
     FM010200 04012KT P6SM -RA OVC025 
     FM010700 03015G20KT 5SM -RA BR OVC020